sensor_id;sensor_type;location;lat;lon;timestamp;P1;durP1;ratioP1;P2;durP2;ratioP2
55720;SDS011;41626;53.098;6.168;2023-03-23T00:02:11;12.00;;;10.05;;
55720;SDS011;41626;53.098;6.168;2023-03-23T00:04:37;10.63;;;9.10;;
55720;SDS011;41626;53.098;6.168;2023-03-23T00:07:03;11.37;;;10.20;;
55720;SDS011;41626;53.098;6.168;2023-03-23T00:09:28;12.37;;;11.17;;
55720;SDS011;41626;53.098;6.168;2023-03-23T00:11:55;11.95;;;10.85;;
55720;SDS011;41626;53.098;6.168;2023-03-23T00:14:22;14.00;;;12.60;;
55720;SDS011;41626;53.098;6.168;2023-03-23T00:16:48;16.08;;;14.38;;
55720;SDS011;41626;53.098;6.168;2023-03-23T00:19:16;17.13;;;15.35;;
55720;SDS011;41626;53.098;6.168;2023-03-23T00:21:44;17.45;;;14.15;;
55720;SDS011;41626;53.098;6.168;2023-03-23T00:24:14;17.00;;;14.95;;
55720;SDS011;41626;53.098;6.168;2023-03-23T00:26:43;17.45;;;15.25;;
55720;SDS011;41626;53.098;6.168;2023-03-23T00:29:15;17.45;;;15.18;;
55720;SDS011;41626;53.098;6.168;2023-03-23T00:31:46;16.23;;;14.43;;
55720;SDS011;41626;53.098;6.168;2023-03-23T00:34:16;15.20;;;13.60;;
55720;SDS011;41626;53.098;6.168;2023-03-23T00:36:44;15.93;;;14.23;;
55720;SDS011;41626;53.098;6.168;2023-03-23T00:39:15;14.55;;;11.60;;
55720;SDS011;41626;53.098;6.168;2023-03-23T00:41:45;11.93;;;9.38;;
55720;SDS011;41626;53.098;6.168;2023-03-23T00:44:12;8.88;;;6.85;;
55720;SDS011;41626;53.098;6.168;2023-03-23T00:46:47;5.78;;;4.10;;
55720;SDS011;41626;53.098;6.168;2023-03-23T00:49:15;9.90;;;3.90;;
55720;SDS011;41626;53.098;6.168;2023-03-23T00:51:43;3.58;;;2.67;;
55720;SDS011;41626;53.098;6.168;2023-03-23T00:54:09;5.45;;;2.90;;
55720;SDS011;41626;53.098;6.168;2023-03-23T00:56:36;3.90;;;2.35;;
55720;SDS011;41626;53.098;6.168;2023-03-23T00:59:03;4.70;;;3.03;;
55720;SDS011;41626;53.098;6.168;2023-03-23T01:01:30;3.22;;;2.17;;
55720;SDS011;41626;53.098;6.168;2023-03-23T01:03:55;3.83;;;2.28;;
55720;SDS011;41626;53.098;6.168;2023-03-23T01:06:26;5.32;;;2.15;;
55720;SDS011;41626;53.098;6.168;2023-03-23T01:08:53;4.18;;;2.47;;
55720;SDS011;41626;53.098;6.168;2023-03-23T01:11:19;5.22;;;2.97;;
55720;SDS011;41626;53.098;6.168;2023-03-23T01:13:45;4.15;;;3.22;;
55720;SDS011;41626;53.098;6.168;2023-03-23T01:16:11;4.35;;;3.85;;
55720;SDS011;41626;53.098;6.168;2023-03-23T01:18:37;8.82;;;4.57;;
55720;SDS011;41626;53.098;6.168;2023-03-23T01:21:10;8.63;;;5.05;;
55720;SDS011;41626;53.098;6.168;2023-03-23T01:23:38;7.25;;;5.88;;
55720;SDS011;41626;53.098;6.168;2023-03-23T01:28:32;8.38;;;7.13;;
55720;SDS011;41626;53.098;6.168;2023-03-23T01:30:59;15.60;;;7.87;;
55720;SDS011;41626;53.098;6.168;2023-03-23T01:33:26;9.40;;;6.85;;
55720;SDS011;41626;53.098;6.168;2023-03-23T01:35:52;10.27;;;7.72;;
55720;SDS011;41626;53.098;6.168;2023-03-23T01:38:18;13.85;;;7.78;;
55720;SDS011;41626;53.098;6.168;2023-03-23T01:40:44;10.40;;;7.22;;
55720;SDS011;41626;53.098;6.168;2023-03-23T01:43:13;10.60;;;6.88;;
55720;SDS011;41626;53.098;6.168;2023-03-23T01:45:40;11.30;;;7.20;;
55720;SDS011;41626;53.098;6.168;2023-03-23T01:48:14;11.33;;;6.70;;
55720;SDS011;41626;53.098;6.168;2023-03-23T01:50:59;12.18;;;7.50;;
55720;SDS011;41626;53.098;6.168;2023-03-23T01:53:30;12.03;;;7.03;;
55720;SDS011;41626;53.098;6.168;2023-03-23T01:56:03;9.82;;;6.20;;
55720;SDS011;41626;53.098;6.168;2023-03-23T01:58:30;9.68;;;6.15;;
55720;SDS011;41626;53.098;6.168;2023-03-23T02:00:58;13.27;;;5.75;;
55720;SDS011;41626;53.098;6.168;2023-03-23T02:03:28;11.52;;;6.38;;
55720;SDS011;41626;53.098;6.168;2023-03-23T02:05:56;11.32;;;5.90;;
55720;SDS011;41626;53.098;6.168;2023-03-23T02:08:26;7.95;;;5.63;;
55720;SDS011;41626;53.098;6.168;2023-03-23T02:10:54;9.68;;;6.07;;
55720;SDS011;41626;53.098;6.168;2023-03-23T02:13:19;8.15;;;5.57;;
55720;SDS011;41626;53.098;6.168;2023-03-23T02:18:33;8.35;;;5.32;;
55720;SDS011;41626;53.098;6.168;2023-03-23T02:26:47;10.55;;;6.05;;
55720;SDS011;41626;53.098;6.168;2023-03-23T02:33:16;8.18;;;5.47;;
55720;SDS011;41626;53.098;6.168;2023-03-23T02:35:22;7.60;;;4.90;;
55720;SDS011;41626;53.098;6.168;2023-03-23T02:38:28;8.57;;;5.00;;
55720;SDS011;41626;53.098;6.168;2023-03-23T02:40:49;8.35;;;5.18;;
55720;SDS011;41626;53.098;6.168;2023-03-23T02:43:20;10.32;;;5.95;;
55720;SDS011;41626;53.098;6.168;2023-03-23T02:45:49;9.00;;;5.38;;
55720;SDS011;41626;53.098;6.168;2023-03-23T02:48:17;8.57;;;5.32;;
55720;SDS011;41626;53.098;6.168;2023-03-23T02:50:47;7.53;;;4.50;;
55720;SDS011;41626;53.098;6.168;2023-03-23T02:53:17;7.57;;;5.32;;
55720;SDS011;41626;53.098;6.168;2023-03-23T02:55:46;8.00;;;4.88;;
55720;SDS011;41626;53.098;6.168;2023-03-23T02:58:13;11.25;;;4.85;;
55720;SDS011;41626;53.098;6.168;2023-03-23T03:00:39;8.63;;;5.07;;
55720;SDS011;41626;53.098;6.168;2023-03-23T03:03:08;7.47;;;4.57;;
55720;SDS011;41626;53.098;6.168;2023-03-23T03:05:44;9.52;;;4.57;;
55720;SDS011;41626;53.098;6.168;2023-03-23T03:08:27;8.73;;;4.83;;
55720;SDS011;41626;53.098;6.168;2023-03-23T03:15:59;7.80;;;4.68;;
55720;SDS011;41626;53.098;6.168;2023-03-23T03:21:25;7.68;;;4.03;;
55720;SDS011;41626;53.098;6.168;2023-03-23T03:23:54;8.65;;;4.68;;
55720;SDS011;41626;53.098;6.168;2023-03-23T03:26:24;9.25;;;4.18;;
55720;SDS011;41626;53.098;6.168;2023-03-23T03:28:51;7.63;;;4.20;;
55720;SDS011;41626;53.098;6.168;2023-03-23T03:31:19;5.65;;;4.15;;
55720;SDS011;41626;53.098;6.168;2023-03-23T03:33:47;6.82;;;3.88;;
55720;SDS011;41626;53.098;6.168;2023-03-23T03:36:17;8.52;;;4.18;;
55720;SDS011;41626;53.098;6.168;2023-03-23T03:38:50;9.57;;;4.43;;
55720;SDS011;41626;53.098;6.168;2023-03-23T03:41:17;7.32;;;4.32;;
55720;SDS011;41626;53.098;6.168;2023-03-23T03:43:44;9.23;;;4.30;;
55720;SDS011;41626;53.098;6.168;2023-03-23T03:46:10;8.90;;;4.75;;
55720;SDS011;41626;53.098;6.168;2023-03-23T03:48:36;9.55;;;4.75;;
55720;SDS011;41626;53.098;6.168;2023-03-23T03:51:02;14.20;;;6.25;;
55720;SDS011;41626;53.098;6.168;2023-03-23T03:53:28;8.10;;;5.25;;
55720;SDS011;41626;53.098;6.168;2023-03-23T03:55:53;6.85;;;4.45;;
55720;SDS011;41626;53.098;6.168;2023-03-23T03:58:25;7.25;;;4.68;;
55720;SDS011;41626;53.098;6.168;2023-03-23T04:00:57;8.50;;;3.13;;
55720;SDS011;41626;53.098;6.168;2023-03-23T04:03:23;7.67;;;3.67;;
55720;SDS011;41626;53.098;6.168;2023-03-23T04:05:50;6.53;;;3.10;;
55720;SDS011;41626;53.098;6.168;2023-03-23T04:08:16;14.77;;;4.60;;
55720;SDS011;41626;53.098;6.168;2023-03-23T04:10:42;8.15;;;3.40;;
55720;SDS011;41626;53.098;6.168;2023-03-23T04:13:08;6.53;;;3.23;;
55720;SDS011;41626;53.098;6.168;2023-03-23T04:15:34;11.67;;;4.80;;
55720;SDS011;41626;53.098;6.168;2023-03-23T04:18:00;7.83;;;3.60;;
55720;SDS011;41626;53.098;6.168;2023-03-23T04:20:25;7.90;;;3.50;;
55720;SDS011;41626;53.098;6.168;2023-03-23T04:22:51;7.25;;;3.50;;
55720;SDS011;41626;53.098;6.168;2023-03-23T04:25:20;5.78;;;3.80;;
55720;SDS011;41626;53.098;6.168;2023-03-23T04:27:46;8.07;;;3.53;;
55720;SDS011;41626;53.098;6.168;2023-03-23T04:30:18;8.30;;;4.07;;
55720;SDS011;41626;53.098;6.168;2023-03-23T04:32:46;7.15;;;2.58;;
55720;SDS011;41626;53.098;6.168;2023-03-23T04:35:15;5.25;;;2.03;;
55720;SDS011;41626;53.098;6.168;2023-03-23T04:37:42;7.47;;;2.00;;
55720;SDS011;41626;53.098;6.168;2023-03-23T04:40:08;6.83;;;2.17;;
55720;SDS011;41626;53.098;6.168;2023-03-23T04:42:37;7.43;;;2.10;;
55720;SDS011;41626;53.098;6.168;2023-03-23T04:45:05;8.15;;;2.92;;
55720;SDS011;41626;53.098;6.168;2023-03-23T04:47:32;9.13;;;2.13;;
55720;SDS011;41626;53.098;6.168;2023-03-23T04:50:06;6.53;;;2.55;;
55720;SDS011;41626;53.098;6.168;2023-03-23T04:52:37;7.53;;;2.80;;
55720;SDS011;41626;53.098;6.168;2023-03-23T04:55:05;8.52;;;3.30;;
55720;SDS011;41626;53.098;6.168;2023-03-23T04:57:33;9.35;;;3.60;;
55720;SDS011;41626;53.098;6.168;2023-03-23T05:00:00;10.98;;;3.72;;
55720;SDS011;41626;53.098;6.168;2023-03-23T05:02:29;10.37;;;4.03;;
55720;SDS011;41626;53.098;6.168;2023-03-23T05:04:55;11.57;;;3.83;;
55720;SDS011;41626;53.098;6.168;2023-03-23T05:07:22;9.43;;;3.70;;
55720;SDS011;41626;53.098;6.168;2023-03-23T05:09:48;11.03;;;3.87;;
55720;SDS011;41626;53.098;6.168;2023-03-23T05:12:14;12.40;;;4.38;;
55720;SDS011;41626;53.098;6.168;2023-03-23T05:14:41;10.88;;;3.70;;
55720;SDS011;41626;53.098;6.168;2023-03-23T05:17:07;13.65;;;3.70;;
55720;SDS011;41626;53.098;6.168;2023-03-23T05:19:34;12.85;;;4.38;;
55720;SDS011;41626;53.098;6.168;2023-03-23T05:22:01;19.73;;;4.88;;
55720;SDS011;41626;53.098;6.168;2023-03-23T05:24:27;25.88;;;13.27;;
55720;SDS011;41626;53.098;6.168;2023-03-23T05:26:56;21.17;;;4.90;;
55720;SDS011;41626;53.098;6.168;2023-03-23T05:29:22;17.70;;;3.70;;
55720;SDS011;41626;53.098;6.168;2023-03-23T05:31:48;19.83;;;4.65;;
55720;SDS011;41626;53.098;6.168;2023-03-23T05:34:14;21.55;;;5.18;;
55720;SDS011;41626;53.098;6.168;2023-03-23T05:36:41;22.33;;;4.45;;
55720;SDS011;41626;53.098;6.168;2023-03-23T05:39:08;24.52;;;4.88;;
55720;SDS011;41626;53.098;6.168;2023-03-23T05:41:36;24.10;;;6.72;;
55720;SDS011;41626;53.098;6.168;2023-03-23T05:44:02;22.63;;;5.47;;
55720;SDS011;41626;53.098;6.168;2023-03-23T05:46:28;20.63;;;5.70;;
55720;SDS011;41626;53.098;6.168;2023-03-23T05:48:54;21.90;;;5.68;;
55720;SDS011;41626;53.098;6.168;2023-03-23T05:51:20;18.80;;;5.13;;
55720;SDS011;41626;53.098;6.168;2023-03-23T05:53:46;20.50;;;4.60;;
55720;SDS011;41626;53.098;6.168;2023-03-23T05:56:13;17.38;;;3.85;;
55720;SDS011;41626;53.098;6.168;2023-03-23T05:58:39;17.98;;;4.75;;
55720;SDS011;41626;53.098;6.168;2023-03-23T06:01:06;20.77;;;5.30;;
55720;SDS011;41626;53.098;6.168;2023-03-23T06:03:32;21.83;;;5.83;;
55720;SDS011;41626;53.098;6.168;2023-03-23T06:06:01;22.70;;;6.32;;
55720;SDS011;41626;53.098;6.168;2023-03-23T06:08:28;25.83;;;5.85;;
55720;SDS011;41626;53.098;6.168;2023-03-23T06:10:53;21.98;;;5.38;;
55720;SDS011;41626;53.098;6.168;2023-03-23T06:13:20;23.80;;;5.28;;
55720;SDS011;41626;53.098;6.168;2023-03-23T06:15:48;21.38;;;4.80;;
55720;SDS011;41626;53.098;6.168;2023-03-23T06:18:14;23.05;;;5.35;;
55720;SDS011;41626;53.098;6.168;2023-03-23T06:20:40;20.35;;;5.07;;
55720;SDS011;41626;53.098;6.168;2023-03-23T06:23:07;22.87;;;4.83;;
55720;SDS011;41626;53.098;6.168;2023-03-23T06:25:33;21.92;;;5.88;;
55720;SDS011;41626;53.098;6.168;2023-03-23T06:27:59;17.73;;;4.47;;
55720;SDS011;41626;53.098;6.168;2023-03-23T06:30:25;16.10;;;4.10;;
55720;SDS011;41626;53.098;6.168;2023-03-23T06:32:52;16.02;;;4.07;;
55720;SDS011;41626;53.098;6.168;2023-03-23T06:35:18;13.70;;;3.58;;
55720;SDS011;41626;53.098;6.168;2023-03-23T06:37:45;10.40;;;2.90;;
55720;SDS011;41626;53.098;6.168;2023-03-23T06:40:11;16.48;;;4.03;;
55720;SDS011;41626;53.098;6.168;2023-03-23T06:42:37;11.37;;;2.67;;
55720;SDS011;41626;53.098;6.168;2023-03-23T06:45:03;12.52;;;3.13;;
55720;SDS011;41626;53.098;6.168;2023-03-23T06:47:30;14.80;;;3.40;;
55720;SDS011;41626;53.098;6.168;2023-03-23T06:49:58;15.70;;;4.13;;
55720;SDS011;41626;53.098;6.168;2023-03-23T06:52:24;11.60;;;3.65;;
55720;SDS011;41626;53.098;6.168;2023-03-23T06:54:50;21.27;;;4.88;;
55720;SDS011;41626;53.098;6.168;2023-03-23T06:57:17;21.42;;;5.18;;
55720;SDS011;41626;53.098;6.168;2023-03-23T06:59:43;26.13;;;5.32;;
55720;SDS011;41626;53.098;6.168;2023-03-23T07:02:10;18.13;;;4.13;;
55720;SDS011;41626;53.098;6.168;2023-03-23T07:04:37;22.73;;;4.43;;
55720;SDS011;41626;53.098;6.168;2023-03-23T07:07:04;19.67;;;5.23;;
55720;SDS011;41626;53.098;6.168;2023-03-23T07:09:31;28.77;;;6.95;;
55720;SDS011;41626;53.098;6.168;2023-03-23T07:11:57;22.00;;;5.72;;
55720;SDS011;41626;53.098;6.168;2023-03-23T07:14:23;18.88;;;5.63;;
55720;SDS011;41626;53.098;6.168;2023-03-23T07:16:49;30.20;;;7.33;;
55720;SDS011;41626;53.098;6.168;2023-03-23T07:19:15;28.88;;;5.53;;
55720;SDS011;41626;53.098;6.168;2023-03-23T07:21:41;27.52;;;6.00;;
55720;SDS011;41626;53.098;6.168;2023-03-23T07:24:10;27.97;;;7.37;;
55720;SDS011;41626;53.098;6.168;2023-03-23T07:26:38;24.42;;;5.88;;
55720;SDS011;41626;53.098;6.168;2023-03-23T07:29:07;26.33;;;6.07;;
55720;SDS011;41626;53.098;6.168;2023-03-23T07:31:33;28.15;;;6.03;;
55720;SDS011;41626;53.098;6.168;2023-03-23T07:34:00;27.02;;;6.07;;
55720;SDS011;41626;53.098;6.168;2023-03-23T07:36:26;29.80;;;7.30;;
55720;SDS011;41626;53.098;6.168;2023-03-23T07:38:52;38.78;;;8.50;;
55720;SDS011;41626;53.098;6.168;2023-03-23T07:41:18;32.35;;;8.18;;
55720;SDS011;41626;53.098;6.168;2023-03-23T07:43:44;28.48;;;7.90;;
55720;SDS011;41626;53.098;6.168;2023-03-23T07:46:11;25.85;;;7.47;;
55720;SDS011;41626;53.098;6.168;2023-03-23T07:48:37;29.63;;;6.82;;
55720;SDS011;41626;53.098;6.168;2023-03-23T07:51:04;26.37;;;6.70;;
55720;SDS011;41626;53.098;6.168;2023-03-23T07:53:30;28.58;;;8.80;;
55720;SDS011;41626;53.098;6.168;2023-03-23T07:55:57;25.77;;;6.18;;
55720;SDS011;41626;53.098;6.168;2023-03-23T07:58:23;30.90;;;7.97;;
55720;SDS011;41626;53.098;6.168;2023-03-23T08:00:48;30.55;;;6.95;;
55720;SDS011;41626;53.098;6.168;2023-03-23T08:03:15;29.77;;;6.93;;
55720;SDS011;41626;53.098;6.168;2023-03-23T08:05:41;26.95;;;6.90;;
55720;SDS011;41626;53.098;6.168;2023-03-23T08:08:08;27.95;;;7.20;;
55720;SDS011;41626;53.098;6.168;2023-03-23T08:10:34;25.95;;;6.82;;
55720;SDS011;41626;53.098;6.168;2023-03-23T08:13:00;32.20;;;6.90;;
55720;SDS011;41626;53.098;6.168;2023-03-23T08:15:26;32.20;;;7.27;;
55720;SDS011;41626;53.098;6.168;2023-03-23T08:17:53;34.37;;;8.20;;
55720;SDS011;41626;53.098;6.168;2023-03-23T08:20:19;24.63;;;7.18;;
55720;SDS011;41626;53.098;6.168;2023-03-23T08:22:50;29.35;;;7.50;;
55720;SDS011;41626;53.098;6.168;2023-03-23T08:25:19;29.00;;;8.13;;
55720;SDS011;41626;53.098;6.168;2023-03-23T08:27:44;33.42;;;7.07;;
55720;SDS011;41626;53.098;6.168;2023-03-23T08:30:11;26.98;;;7.20;;
55720;SDS011;41626;53.098;6.168;2023-03-23T08:32:39;31.83;;;8.13;;
55720;SDS011;41626;53.098;6.168;2023-03-23T08:35:06;30.15;;;6.93;;
55720;SDS011;41626;53.098;6.168;2023-03-23T08:37:34;34.50;;;8.15;;
55720;SDS011;41626;53.098;6.168;2023-03-23T08:40:00;31.65;;;7.10;;
55720;SDS011;41626;53.098;6.168;2023-03-23T08:42:32;33.45;;;9.27;;
55720;SDS011;41626;53.098;6.168;2023-03-23T08:44:57;30.90;;;6.60;;
55720;SDS011;41626;53.098;6.168;2023-03-23T08:47:24;32.93;;;9.77;;
55720;SDS011;41626;53.098;6.168;2023-03-23T08:49:50;30.52;;;7.88;;
55720;SDS011;41626;53.098;6.168;2023-03-23T08:52:18;33.65;;;8.32;;
55720;SDS011;41626;53.098;6.168;2023-03-23T08:54:44;38.38;;;9.57;;
55720;SDS011;41626;53.098;6.168;2023-03-23T08:57:12;30.05;;;7.55;;
55720;SDS011;41626;53.098;6.168;2023-03-23T08:59:39;34.28;;;8.07;;
55720;SDS011;41626;53.098;6.168;2023-03-23T09:02:08;29.75;;;6.80;;
55720;SDS011;41626;53.098;6.168;2023-03-23T09:04:35;28.83;;;7.43;;
55720;SDS011;41626;53.098;6.168;2023-03-23T09:07:01;29.80;;;7.47;;
55720;SDS011;41626;53.098;6.168;2023-03-23T09:09:27;34.10;;;7.00;;
55720;SDS011;41626;53.098;6.168;2023-03-23T09:11:53;34.63;;;9.32;;
55720;SDS011;41626;53.098;6.168;2023-03-23T09:14:19;33.35;;;8.30;;
55720;SDS011;41626;53.098;6.168;2023-03-23T09:16:45;31.17;;;8.07;;
55720;SDS011;41626;53.098;6.168;2023-03-23T09:19:11;31.88;;;6.80;;
55720;SDS011;41626;53.098;6.168;2023-03-23T09:21:37;27.58;;;6.90;;
55720;SDS011;41626;53.098;6.168;2023-03-23T09:24:04;28.02;;;6.57;;
55720;SDS011;41626;53.098;6.168;2023-03-23T09:26:30;37.78;;;9.73;;
55720;SDS011;41626;53.098;6.168;2023-03-23T09:28:57;29.63;;;7.68;;
55720;SDS011;41626;53.098;6.168;2023-03-23T09:31:23;33.83;;;9.25;;
55720;SDS011;41626;53.098;6.168;2023-03-23T09:33:51;27.85;;;8.32;;
55720;SDS011;41626;53.098;6.168;2023-03-23T09:36:21;30.65;;;7.47;;
55720;SDS011;41626;53.098;6.168;2023-03-23T09:38:47;32.17;;;8.80;;
55720;SDS011;41626;53.098;6.168;2023-03-23T09:41:27;32.28;;;7.53;;
55720;SDS011;41626;53.098;6.168;2023-03-23T09:44:36;25.45;;;6.75;;
55720;SDS011;41626;53.098;6.168;2023-03-23T09:49:57;29.30;;;7.22;;
55720;SDS011;41626;53.098;6.168;2023-03-23T09:52:37;26.65;;;7.13;;
55720;SDS011;41626;53.098;6.168;2023-03-23T09:55:14;26.92;;;6.93;;
55720;SDS011;41626;53.098;6.168;2023-03-23T09:57:47;26.58;;;7.25;;
55720;SDS011;41626;53.098;6.168;2023-03-23T10:00:31;28.10;;;8.73;;
55720;SDS011;41626;53.098;6.168;2023-03-23T10:03:04;23.58;;;7.07;;
55720;SDS011;41626;53.098;6.168;2023-03-23T10:05:44;26.63;;;6.85;;
55720;SDS011;41626;53.098;6.168;2023-03-23T10:08:22;28.20;;;7.70;;
55720;SDS011;41626;53.098;6.168;2023-03-23T10:13:35;23.40;;;5.93;;
55720;SDS011;41626;53.098;6.168;2023-03-23T10:16:08;27.00;;;6.95;;
55720;SDS011;41626;53.098;6.168;2023-03-23T10:21:25;29.05;;;7.13;;
55720;SDS011;41626;53.098;6.168;2023-03-23T10:24:02;29.48;;;7.13;;
55720;SDS011;41626;53.098;6.168;2023-03-23T10:26:42;30.65;;;7.28;;
55720;SDS011;41626;53.098;6.168;2023-03-23T10:31:56;22.73;;;6.03;;
55720;SDS011;41626;53.098;6.168;2023-03-23T10:34:34;26.98;;;6.05;;
55720;SDS011;41626;53.098;6.168;2023-03-23T10:39:54;30.50;;;6.95;;
55720;SDS011;41626;53.098;6.168;2023-03-23T10:42:23;25.00;;;6.22;;
55720;SDS011;41626;53.098;6.168;2023-03-23T10:44:51;24.73;;;6.57;;
55720;SDS011;41626;53.098;6.168;2023-03-23T10:47:17;30.75;;;7.45;;
55720;SDS011;41626;53.098;6.168;2023-03-23T10:49:45;27.70;;;7.35;;
55720;SDS011;41626;53.098;6.168;2023-03-23T10:55:11;21.30;;;5.32;;
55720;SDS011;41626;53.098;6.168;2023-03-23T10:58:02;19.42;;;4.63;;
55720;SDS011;41626;53.098;6.168;2023-03-23T11:00:39;21.88;;;4.88;;
55720;SDS011;41626;53.098;6.168;2023-03-23T11:06:18;20.55;;;5.60;;
55720;SDS011;41626;53.098;6.168;2023-03-23T11:08:35;22.85;;;6.15;;
55720;SDS011;41626;53.098;6.168;2023-03-23T11:11:20;19.60;;;5.43;;
55720;SDS011;41626;53.098;6.168;2023-03-23T11:14:01;17.15;;;4.40;;
55720;SDS011;41626;53.098;6.168;2023-03-23T11:16:41;20.02;;;5.35;;
55720;SDS011;41626;53.098;6.168;2023-03-23T11:19:20;21.23;;;5.30;;
55720;SDS011;41626;53.098;6.168;2023-03-23T11:21:51;20.63;;;6.22;;
55720;SDS011;41626;53.098;6.168;2023-03-23T11:24:21;13.43;;;3.80;;
55720;SDS011;41626;53.098;6.168;2023-03-23T11:26:48;15.93;;;4.80;;
55720;SDS011;41626;53.098;6.168;2023-03-23T11:29:17;14.48;;;4.65;;
55720;SDS011;41626;53.098;6.168;2023-03-23T11:31:49;14.55;;;3.80;;
55720;SDS011;41626;53.098;6.168;2023-03-23T11:34:19;15.85;;;4.63;;
55720;SDS011;41626;53.098;6.168;2023-03-23T11:36:53;16.45;;;4.45;;
55720;SDS011;41626;53.098;6.168;2023-03-23T11:39:30;18.67;;;4.57;;
55720;SDS011;41626;53.098;6.168;2023-03-23T11:42:12;18.80;;;5.57;;
55720;SDS011;41626;53.098;6.168;2023-03-23T11:44:44;18.53;;;4.57;;
55720;SDS011;41626;53.098;6.168;2023-03-23T11:47:30;17.35;;;4.55;;
55720;SDS011;41626;53.098;6.168;2023-03-23T11:50:08;14.35;;;4.05;;
55720;SDS011;41626;53.098;6.168;2023-03-23T11:52:41;22.67;;;4.65;;
55720;SDS011;41626;53.098;6.168;2023-03-23T11:55:32;15.23;;;3.72;;
55720;SDS011;41626;53.098;6.168;2023-03-23T11:58:20;19.53;;;4.53;;
55720;SDS011;41626;53.098;6.168;2023-03-23T12:01:05;16.75;;;4.22;;
55720;SDS011;41626;53.098;6.168;2023-03-23T12:03:51;12.77;;;4.03;;
55720;SDS011;41626;53.098;6.168;2023-03-23T12:06:44;19.20;;;5.32;;
55720;SDS011;41626;53.098;6.168;2023-03-23T12:09:35;15.70;;;4.30;;
55720;SDS011;41626;53.098;6.168;2023-03-23T12:17:51;18.73;;;4.97;;
55720;SDS011;41626;53.098;6.168;2023-03-23T12:20:45;12.50;;;3.90;;
55720;SDS011;41626;53.098;6.168;2023-03-23T12:31:57;18.30;;;5.50;;
55720;SDS011;41626;53.098;6.168;2023-03-23T12:40:32;13.20;;;3.90;;
55720;SDS011;41626;53.098;6.168;2023-03-23T12:45:59;17.92;;;4.90;;
55720;SDS011;41626;53.098;6.168;2023-03-23T12:48:34;14.50;;;3.50;;
55720;SDS011;41626;53.098;6.168;2023-03-23T13:01:45;15.37;;;4.03;;
55720;SDS011;41626;53.098;6.168;2023-03-23T13:07:12;18.80;;;4.90;;
55720;SDS011;41626;53.098;6.168;2023-03-23T13:12:23;13.75;;;4.18;;
55720;SDS011;41626;53.098;6.168;2023-03-23T13:20:52;20.00;;;4.70;;
55720;SDS011;41626;53.098;6.168;2023-03-23T13:23:55;23.13;;;5.10;;
55720;SDS011;41626;53.098;6.168;2023-03-23T13:26:23;20.42;;;4.63;;
55720;SDS011;41626;53.098;6.168;2023-03-23T13:31:32;16.03;;;4.33;;
55720;SDS011;41626;53.098;6.168;2023-03-23T13:36:36;17.00;;;5.03;;
55720;SDS011;41626;53.098;6.168;2023-03-23T13:39:04;14.30;;;3.97;;
55720;SDS011;41626;53.098;6.168;2023-03-23T13:41:46;15.77;;;4.22;;
55720;SDS011;41626;53.098;6.168;2023-03-23T13:44:24;22.17;;;4.63;;
55720;SDS011;41626;53.098;6.168;2023-03-23T13:46:55;13.40;;;4.18;;
55720;SDS011;41626;53.098;6.168;2023-03-23T13:49:23;18.88;;;5.47;;
55720;SDS011;41626;53.098;6.168;2023-03-23T13:54:39;16.00;;;4.22;;
55720;SDS011;41626;53.098;6.168;2023-03-23T13:59:58;20.40;;;5.13;;
55720;SDS011;41626;53.098;6.168;2023-03-23T14:02:32;17.23;;;4.30;;
55720;SDS011;41626;53.098;6.168;2023-03-23T14:05:09;14.52;;;4.28;;
55720;SDS011;41626;53.098;6.168;2023-03-23T14:07:53;19.75;;;4.88;;
55720;SDS011;41626;53.098;6.168;2023-03-23T14:10:21;14.30;;;4.00;;
55720;SDS011;41626;53.098;6.168;2023-03-23T14:12:49;15.57;;;4.60;;
55720;SDS011;41626;53.098;6.168;2023-03-23T14:15:18;17.67;;;4.40;;
55720;SDS011;41626;53.098;6.168;2023-03-23T14:17:44;21.00;;;5.78;;
55720;SDS011;41626;53.098;6.168;2023-03-23T14:20:20;16.35;;;4.13;;
55720;SDS011;41626;53.098;6.168;2023-03-23T14:22:54;14.93;;;4.25;;
55720;SDS011;41626;53.098;6.168;2023-03-23T14:25:21;19.45;;;4.88;;
55720;SDS011;41626;53.098;6.168;2023-03-23T14:27:51;15.20;;;4.20;;
55720;SDS011;41626;53.098;6.168;2023-03-23T14:30:19;14.07;;;3.20;;
55720;SDS011;41626;53.098;6.168;2023-03-23T14:32:46;18.25;;;4.55;;
55720;SDS011;41626;53.098;6.168;2023-03-23T14:35:34;12.20;;;3.27;;
55720;SDS011;41626;53.098;6.168;2023-03-23T14:38:01;13.10;;;3.63;;
55720;SDS011;41626;53.098;6.168;2023-03-23T14:40:27;14.27;;;3.70;;
55720;SDS011;41626;53.098;6.168;2023-03-23T14:42:55;9.10;;;3.00;;
55720;SDS011;41626;53.098;6.168;2023-03-23T14:45:22;14.93;;;3.78;;
55720;SDS011;41626;53.098;6.168;2023-03-23T14:47:53;11.02;;;3.53;;
55720;SDS011;41626;53.098;6.168;2023-03-23T14:50:38;12.70;;;3.65;;
55720;SDS011;41626;53.098;6.168;2023-03-23T14:55:50;13.57;;;3.35;;
55720;SDS011;41626;53.098;6.168;2023-03-23T14:58:18;15.33;;;3.90;;
55720;SDS011;41626;53.098;6.168;2023-03-23T15:03:52;9.75;;;2.72;;
55720;SDS011;41626;53.098;6.168;2023-03-23T15:06:25;11.13;;;3.43;;
55720;SDS011;41626;53.098;6.168;2023-03-23T15:08:54;11.00;;;3.35;;
55720;SDS011;41626;53.098;6.168;2023-03-23T15:11:33;13.18;;;3.10;;
55720;SDS011;41626;53.098;6.168;2023-03-23T15:14:02;17.75;;;3.42;;
55720;SDS011;41626;53.098;6.168;2023-03-23T15:16:35;11.23;;;3.05;;
55720;SDS011;41626;53.098;6.168;2023-03-23T15:19:04;13.13;;;3.40;;
55720;SDS011;41626;53.098;6.168;2023-03-23T15:21:46;13.43;;;3.85;;
55720;SDS011;41626;53.098;6.168;2023-03-23T15:27:15;15.75;;;3.67;;
55720;SDS011;41626;53.098;6.168;2023-03-23T15:29:50;12.45;;;3.15;;
55720;SDS011;41626;53.098;6.168;2023-03-23T15:32:30;12.50;;;3.05;;
55720;SDS011;41626;53.098;6.168;2023-03-23T15:35:03;12.88;;;4.18;;
55720;SDS011;41626;53.098;6.168;2023-03-23T15:37:38;13.82;;;3.70;;
55720;SDS011;41626;53.098;6.168;2023-03-23T15:40:18;15.90;;;4.85;;
55720;SDS011;41626;53.098;6.168;2023-03-23T15:42:46;14.38;;;4.20;;
55720;SDS011;41626;53.098;6.168;2023-03-23T15:50:18;19.55;;;6.15;;
55720;SDS011;41626;53.098;6.168;2023-03-23T15:52:53;21.08;;;4.72;;
55720;SDS011;41626;53.098;6.168;2023-03-23T15:55:26;18.65;;;4.68;;
55720;SDS011;41626;53.098;6.168;2023-03-23T15:57:54;14.27;;;4.65;;
55720;SDS011;41626;53.098;6.168;2023-03-23T16:00:22;16.20;;;4.22;;
55720;SDS011;41626;53.098;6.168;2023-03-23T16:02:55;19.05;;;4.75;;
55720;SDS011;41626;53.098;6.168;2023-03-23T16:05:23;12.30;;;3.58;;
55720;SDS011;41626;53.098;6.168;2023-03-23T16:07:49;17.40;;;3.83;;
55720;SDS011;41626;53.098;6.168;2023-03-23T16:10:17;17.45;;;4.35;;
55720;SDS011;41626;53.098;6.168;2023-03-23T16:12:45;15.77;;;4.20;;
55720;SDS011;41626;53.098;6.168;2023-03-23T16:15:11;13.73;;;4.40;;
55720;SDS011;41626;53.098;6.168;2023-03-23T16:17:37;18.10;;;4.75;;
55720;SDS011;41626;53.098;6.168;2023-03-23T16:20:17;14.07;;;3.63;;
55720;SDS011;41626;53.098;6.168;2023-03-23T16:22:45;20.13;;;5.38;;
55720;SDS011;41626;53.098;6.168;2023-03-23T16:25:12;15.32;;;4.70;;
55720;SDS011;41626;53.098;6.168;2023-03-23T16:27:38;15.98;;;4.82;;
55720;SDS011;41626;53.098;6.168;2023-03-23T16:30:15;16.77;;;5.00;;
55720;SDS011;41626;53.098;6.168;2023-03-23T16:32:46;17.85;;;4.50;;
55720;SDS011;41626;53.098;6.168;2023-03-23T16:35:12;16.58;;;4.13;;
55720;SDS011;41626;53.098;6.168;2023-03-23T16:37:43;20.48;;;5.03;;
55720;SDS011;41626;53.098;6.168;2023-03-23T16:40:11;19.80;;;4.95;;
55720;SDS011;41626;53.098;6.168;2023-03-23T16:42:37;19.73;;;5.40;;
55720;SDS011;41626;53.098;6.168;2023-03-23T16:45:03;18.60;;;5.00;;